createdAt,value
2024-01-06T00:00:08.496Z,1006.79
2024-01-06T00:01:07.770Z,1012.13
2024-01-06T00:02:08.367Z,1009.83
2024-01-06T00:03:08.468Z,1008.31
2024-01-06T00:04:07.976Z,1011.36
2024-01-06T00:05:07.156Z,1012.90
2024-01-06T00:06:07.058Z,1013.67
2024-01-06T00:07:07.691Z,1012.90
2024-01-06T00:08:07.106Z,1002.25
2024-01-06T00:09:08.353Z,1009.07
2024-01-06T00:10:06.881Z,1011.36
2024-01-06T00:11:06.888Z,1004.52
2024-01-06T00:12:06.978Z,1005.27
2024-01-06T00:13:06.890Z,1003.76
2024-01-06T00:14:07.209Z,1009.07
2024-01-06T00:15:07.543Z,1009.07
2024-01-06T00:16:08.198Z,1009.07
2024-01-06T00:17:08.210Z,1009.83
2024-01-06T00:18:07.698Z,1011.36
2024-01-06T00:19:07.702Z,1007.55
2024-01-06T00:20:08.793Z,1014.44
2024-01-06T00:21:07.488Z,1008.31
2024-01-06T00:22:07.272Z,1012.90
2024-01-06T00:23:06.970Z,1006.03
2024-01-06T00:24:07.482Z,1015.21
2024-01-06T00:25:07.453Z,1018.31
2024-01-06T00:26:08.068Z,1017.53
2024-01-06T00:27:08.118Z,1015.21
2024-01-06T00:28:07.339Z,1018.31
2024-01-06T00:29:07.331Z,1021.42
2024-01-06T00:30:07.456Z,1020.64
2024-01-06T00:31:08.168Z,1020.64
2024-01-06T00:32:07.297Z,1023.77
2024-01-06T00:33:08.680Z,1021.42
2024-01-06T00:34:06.622Z,1022.21
2024-01-06T00:35:07.020Z,1020.64
2024-01-06T00:36:07.348Z,1023.77
2024-01-06T00:37:08.453Z,1024.56
2024-01-06T00:38:08.492Z,1022.21
2024-01-06T00:39:07.233Z,1024.56
2024-01-06T00:40:07.178Z,1025.35
2024-01-06T00:41:07.861Z,1029.30
2024-01-06T00:42:07.159Z,1025.35
2024-01-06T00:43:07.173Z,1026.92
2024-01-06T00:44:07.801Z,1026.92
2024-01-06T00:45:07.138Z,1029.30
2024-01-06T00:46:07.787Z,1025.35
2024-01-06T00:47:07.801Z,1029.30
2024-01-06T00:48:07.838Z,1025.35
2024-01-06T00:49:07.824Z,1026.92
2024-01-06T00:50:06.444Z,1030.89
2024-01-06T00:51:06.506Z,1028.51
2024-01-06T00:52:07.056Z,1026.92
2024-01-06T00:53:07.022Z,1030.09
2024-01-06T00:54:06.634Z,1025.35
2024-01-06T00:55:06.487Z,1030.09
2024-01-06T00:56:07.691Z,1024.56
2024-01-06T00:57:07.737Z,1022.99
2024-01-06T00:58:07.634Z,1028.51
2024-01-06T00:59:06.989Z,1026.92
2024-01-06T01:00:07.019Z,1022.99
2024-01-06T01:01:07.088Z,1025.35
2024-01-06T01:02:07.579Z,1022.21
2024-01-06T01:03:07.622Z,1020.64
2024-01-06T01:04:08.238Z,1020.64
2024-01-06T01:05:06.879Z,1016.76
2024-01-06T01:06:06.872Z,1019.86
2024-01-06T01:07:06.141Z,1022.21
2024-01-06T01:08:07.498Z,1015.98
2024-01-06T01:09:06.169Z,1015.21
2024-01-06T01:10:08.048Z,1014.44
2024-01-06T01:11:07.452Z,1017.53
2024-01-06T01:12:07.501Z,1018.31
2024-01-06T01:13:07.445Z,1012.90
2024-01-06T01:14:06.816Z,1012.90
2024-01-06T01:15:07.478Z,1013.67
2024-01-06T01:16:07.926Z,1009.83
2024-01-06T01:17:07.364Z,1011.36
2024-01-06T01:18:07.661Z,1009.07
2024-01-06T01:19:06.668Z,1008.31
2024-01-06T01:20:05.946Z,1006.79
2024-01-06T01:21:06.689Z,1005.27
2024-01-06T01:22:06.623Z,1011.36
2024-01-06T01:23:06.613Z,1005.27
2024-01-06T01:24:06.594Z,1006.03
2024-01-06T01:25:06.619Z,1011.36
2024-01-06T01:26:06.616Z,1003.01
2024-01-06T01:27:06.667Z,996.27
2024-01-06T01:28:06.537Z,1009.83
2024-01-06T01:29:07.221Z,1006.79
2024-01-06T01:30:07.303Z,997.76
2024-01-06T01:31:06.750Z,1003.76
2024-01-06T01:32:06.559Z,997.76
2024-01-06T01:33:06.566Z,1001.50
2024-01-06T01:34:07.329Z,992.57
2024-01-06T01:35:06.465Z,997.01
2024-01-06T01:36:07.144Z,990.36
2024-01-06T01:37:06.422Z,992.57
2024-01-06T01:38:07.090Z,985.24
2024-01-06T01:39:07.120Z,988.89
2024-01-06T01:40:06.184Z,990.36
2024-01-06T01:41:06.410Z,995.53
2024-01-06T01:42:06.387Z,988.16
2024-01-06T01:43:07.589Z,987.43
2024-01-06T01:44:06.053Z,985.97
2024-01-06T01:45:08.272Z,982.34
2024-01-06T01:46:06.991Z,982.34
2024-01-06T01:47:07.541Z,983.79
2024-01-06T01:48:06.509Z,978.74
2024-01-06T01:49:07.628Z,986.70
2024-01-06T01:50:06.968Z,985.24
2024-01-06T01:51:07.510Z,978.02
2024-01-06T01:52:07.466Z,981.62
2024-01-06T01:53:07.428Z,982.34
2024-01-06T01:54:07.458Z,983.79
2024-01-06T01:55:07.402Z,980.18
2024-01-06T01:56:07.389Z,984.51
2024-01-06T01:57:07.439Z,980.90
2024-01-06T01:58:07.377Z,982.34
2024-01-06T01:59:06.823Z,983.79
2024-01-06T02:00:06.828Z,976.59
2024-01-06T02:01:06.897Z,980.18
2024-01-06T02:02:06.776Z,974.45
2024-01-06T02:03:06.193Z,971.62
2024-01-06T02:04:06.226Z,976.59
2024-01-06T02:05:06.151Z,967.39
2024-01-06T02:06:06.013Z,970.20
2024-01-06T02:07:06.024Z,970.20
2024-01-06T02:08:06.689Z,966.69
2024-01-06T02:09:05.305Z,963.90
2024-01-06T02:10:05.961Z,963.20
2024-01-06T02:11:06.646Z,963.90
2024-01-06T02:12:05.962Z,962.51
2024-01-06T02:13:05.943Z,959.05
2024-01-06T02:14:05.971Z,957.68
2024-01-06T02:15:06.769Z,956.30
2024-01-06T02:16:06.572Z,950.85
2024-01-06T02:17:06.553Z,961.12
2024-01-06T02:18:06.688Z,952.21
2024-01-06T02:19:06.626Z,950.18
2024-01-06T02:20:05.872Z,952.89
2024-01-06T02:21:05.843Z,945.47
2024-01-06T02:22:05.824Z,943.46
2024-01-06T02:23:05.813Z,944.13
2024-01-06T02:24:05.781Z,938.16
2024-01-06T02:25:06.479Z,941.47
2024-01-06T02:26:05.759Z,943.46
2024-01-06T02:27:05.738Z,910.02
2024-01-06T02:28:06.431Z,890.00
2024-01-06T02:29:05.112Z,892.38
2024-01-06T02:30:05.701Z,877.14
2024-01-06T02:31:05.895Z,873.12
2024-01-06T02:32:06.365Z,870.84
2024-01-06T02:33:06.434Z,870.27
2024-01-06T02:34:05.840Z,866.88
2024-01-06T02:35:06.341Z,859.63
2024-01-06T02:36:06.295Z,864.08
2024-01-06T02:37:04.886Z,861.85
2024-01-06T02:38:05.649Z,866.32
2024-01-06T02:39:06.262Z,875.98
2024-01-06T02:40:05.064Z,877.71
2024-01-06T02:41:05.379Z,874.26
2024-01-06T02:42:05.544Z,886.45
2024-01-06T02:43:05.546Z,882.94
2024-01-06T02:44:06.202Z,891.19
2024-01-06T02:45:04.991Z,884.69
2024-01-06T02:46:06.170Z,885.28
2024-01-06T02:47:06.202Z,892.98
2024-01-06T02:48:06.277Z,891.19
2024-01-06T02:49:06.214Z,897.18
2024-01-06T02:50:05.474Z,892.98
2024-01-06T02:51:04.959Z,898.99
2024-01-06T02:52:05.414Z,901.42
2024-01-06T02:53:05.046Z,900.81
2024-01-06T02:54:06.101Z,897.78
2024-01-06T02:55:06.044Z,898.99
2024-01-06T02:56:06.053Z,900.81
2024-01-06T02:57:06.017Z,903.25
2024-01-06T02:58:06.022Z,908.78
2024-01-06T02:59:05.995Z,906.93
2024-01-06T03:00:05.964Z,908.16
2024-01-06T03:01:05.516Z,908.16
2024-01-06T03:02:05.270Z,906.93
2024-01-06T03:03:05.285Z,906.93
2024-01-06T03:04:06.024Z,913.76
2024-01-06T03:05:05.931Z,915.64
2024-01-06T03:06:05.231Z,905.09
2024-01-06T03:07:05.214Z,911.26
2024-01-06T03:08:05.881Z,910.64
2024-01-06T03:09:04.453Z,920.05
2024-01-06T03:10:05.860Z,915.01
2024-01-06T03:11:05.831Z,918.79
2024-01-06T03:12:05.836Z,920.69
2024-01-06T03:13:05.802Z,916.90
2024-01-06T03:14:05.100Z,916.27
2024-01-06T03:15:05.108Z,917.53
2024-01-06T03:16:05.744Z,919.42
2024-01-06T03:17:05.746Z,915.01
2024-01-06T03:18:05.912Z,922.60
2024-01-06T03:19:05.810Z,921.33
2024-01-06T03:20:05.697Z,916.90
2024-01-06T03:21:05.682Z,925.80
2024-01-06T03:22:05.688Z,927.08
2024-01-06T03:23:05.659Z,931.61
2024-01-06T03:24:04.973Z,930.31
2024-01-06T03:25:04.472Z,932.26
2024-01-06T03:26:05.645Z,929.67
2024-01-06T03:27:05.644Z,934.87
2024-01-06T03:28:04.915Z,934.87
2024-01-06T03:29:04.904Z,932.91
2024-01-06T03:30:05.019Z,929.02
2024-01-06T03:31:04.917Z,932.91
2024-01-06T03:32:04.915Z,934.87
2024-01-06T03:33:04.930Z,938.82
2024-01-06T03:34:05.032Z,938.16
2024-01-06T03:35:04.844Z,944.13
2024-01-06T03:36:05.497Z,944.13
2024-01-06T03:37:04.796Z,943.46
2024-01-06T03:38:05.489Z,948.83
2024-01-06T03:39:04.809Z,946.81
2024-01-06T03:40:04.772Z,944.13
2024-01-06T03:41:05.424Z,947.48
2024-01-06T03:42:05.420Z,942.80
2024-01-06T03:43:04.945Z,953.57
2024-01-06T03:44:05.388Z,950.85
2024-01-06T03:45:04.660Z,956.99
2024-01-06T03:46:05.908Z,955.62
2024-01-06T03:47:04.697Z,963.90
2024-01-06T03:48:05.393Z,965.99
2024-01-06T03:49:04.634Z,969.50
2024-01-06T03:50:05.874Z,969.50
2024-01-06T03:51:05.310Z,970.91
2024-01-06T03:52:05.380Z,965.29
2024-01-06T03:53:05.263Z,972.32
2024-01-06T03:54:05.250Z,965.99
2024-01-06T03:55:05.245Z,968.79
2024-01-06T03:56:04.551Z,968.09
2024-01-06T03:57:03.801Z,974.45
2024-01-06T03:58:05.754Z,966.69
2024-01-06T03:59:05.722Z,973.74
2024-01-06T04:00:05.212Z,967.39
2024-01-06T04:01:04.739Z,968.09
2024-01-06T04:02:05.683Z,973.74
2024-01-06T04:03:05.674Z,974.45
2024-01-06T04:04:04.501Z,972.32
2024-01-06T04:05:05.663Z,971.62
2024-01-06T04:06:05.130Z,972.32
2024-01-06T04:07:04.397Z,973.74
2024-01-06T04:08:05.065Z,974.45
2024-01-06T04:09:04.382Z,970.91
2024-01-06T04:10:04.427Z,972.32
2024-01-06T04:11:05.011Z,970.20
2024-01-06T04:12:04.326Z,978.02
2024-01-06T04:13:03.603Z,978.02
2024-01-06T04:14:03.732Z,974.45
2024-01-06T04:15:04.993Z,973.74
2024-01-06T04:16:04.997Z,971.62
2024-01-06T04:17:04.350Z,975.16
2024-01-06T04:18:04.370Z,973.74
2024-01-06T04:19:04.313Z,978.74
2024-01-06T04:20:04.258Z,978.74
2024-01-06T04:21:04.196Z,969.50
2024-01-06T04:22:04.221Z,982.34
2024-01-06T04:23:04.151Z,976.59
2024-01-06T04:24:04.842Z,979.46
2024-01-06T04:25:04.852Z,972.32
2024-01-06T04:26:04.802Z,978.02
2024-01-06T04:27:04.166Z,976.59
2024-01-06T04:28:04.795Z,981.62
2024-01-06T04:29:03.590Z,978.02
2024-01-06T04:30:04.163Z,973.03
2024-01-06T04:31:05.240Z,981.62
2024-01-06T04:32:04.751Z,976.59
2024-01-06T04:33:04.784Z,982.34
2024-01-06T04:34:05.009Z,978.02
2024-01-06T04:35:04.026Z,976.59
2024-01-06T04:36:04.690Z,975.88
2024-01-06T04:37:03.348Z,979.46
2024-01-06T04:38:04.028Z,978.74
2024-01-06T04:39:04.646Z,974.45
2024-01-06T04:40:04.411Z,973.03
2024-01-06T04:41:03.645Z,974.45
2024-01-06T04:42:04.613Z,979.46
2024-01-06T04:43:03.912Z,980.18
2024-01-06T04:44:03.898Z,979.46
2024-01-06T04:45:03.872Z,978.02
2024-01-06T04:46:04.574Z,972.32
2024-01-06T04:47:03.898Z,976.59
2024-01-06T04:48:03.897Z,975.88
2024-01-06T04:49:03.963Z,976.59
2024-01-06T04:50:04.470Z,978.02
2024-01-06T04:51:04.470Z,976.59
2024-01-06T04:52:05.008Z,971.62
2024-01-06T04:53:03.039Z,975.16
2024-01-06T04:54:04.425Z,968.09
2024-01-06T04:55:03.777Z,975.88
2024-01-06T04:56:04.424Z,970.91
2024-01-06T04:57:03.000Z,974.45
2024-01-06T04:58:04.918Z,972.32
2024-01-06T04:59:03.498Z,972.32
2024-01-06T05:00:04.353Z,965.99
2024-01-06T05:01:04.471Z,967.39
2024-01-06T05:02:04.318Z,966.69
2024-01-06T05:03:04.890Z,964.59
2024-01-06T05:04:04.959Z,973.03
2024-01-06T05:05:03.575Z,964.59
2024-01-06T05:06:03.603Z,970.20
2024-01-06T05:07:03.537Z,965.99
2024-01-06T05:08:04.237Z,973.03
2024-01-06T05:09:03.552Z,970.91
2024-01-06T05:10:04.770Z,965.29
2024-01-06T05:11:04.768Z,970.91
2024-01-06T05:12:03.517Z,964.59
2024-01-06T05:13:04.715Z,969.50
2024-01-06T05:14:04.693Z,971.62
2024-01-06T05:15:04.750Z,969.50
2024-01-06T05:16:04.721Z,968.79
2024-01-06T05:17:03.440Z,970.20
2024-01-06T05:18:03.598Z,966.69
2024-01-06T05:19:03.487Z,969.50
2024-01-06T05:20:04.096Z,968.79
2024-01-06T05:21:03.391Z,971.62
2024-01-06T05:22:03.374Z,966.69
2024-01-06T05:23:03.353Z,970.91
2024-01-06T05:24:04.048Z,971.62
2024-01-06T05:25:04.040Z,961.82
2024-01-06T05:26:03.992Z,964.59
2024-01-06T05:27:03.342Z,969.50
2024-01-06T05:28:03.388Z,970.20
2024-01-06T05:29:03.307Z,970.20
2024-01-06T05:30:04.057Z,965.29
2024-01-06T05:31:04.030Z,965.29
2024-01-06T05:32:03.233Z,965.99
2024-01-06T05:33:03.357Z,963.90
2024-01-06T05:34:04.003Z,959.05
2024-01-06T05:35:03.448Z,960.43
2024-01-06T05:36:03.215Z,965.29
2024-01-06T05:37:03.829Z,961.12
2024-01-06T05:38:03.391Z,961.12
2024-01-06T05:39:03.853Z,960.43
2024-01-06T05:40:03.197Z,963.90
2024-01-06T05:41:03.782Z,956.30
2024-01-06T05:42:03.765Z,959.74
2024-01-06T05:43:03.189Z,961.82
2024-01-06T05:44:03.769Z,961.82
2024-01-06T05:45:03.731Z,961.82
2024-01-06T05:46:03.743Z,958.36
2024-01-06T05:47:03.066Z,954.94
2024-01-06T05:48:03.813Z,957.68
2024-01-06T05:49:03.824Z,952.89
2024-01-06T05:50:03.662Z,958.36
2024-01-06T05:51:03.078Z,952.21
2024-01-06T05:52:02.998Z,951.53
2024-01-06T05:53:03.650Z,955.62
2024-01-06T05:54:03.612Z,963.20
2024-01-06T05:55:02.310Z,956.30
2024-01-06T05:56:03.583Z,956.99
2024-01-06T05:57:02.865Z,960.43
2024-01-06T05:58:02.875Z,959.05
2024-01-06T05:59:02.894Z,956.99
2024-01-06T06:00:03.535Z,955.62
2024-01-06T06:01:02.805Z,961.82
2024-01-06T06:02:02.607Z,959.74
2024-01-06T06:03:02.864Z,958.36
2024-01-06T06:04:02.906Z,957.68
2024-01-06T06:05:02.804Z,961.12
2024-01-06T06:06:02.819Z,963.90
2024-01-06T06:07:03.563Z,960.43
2024-01-06T06:08:03.411Z,962.51
2024-01-06T06:09:02.737Z,966.69
2024-01-06T06:10:04.086Z,961.12
2024-01-06T06:11:03.668Z,963.20
2024-01-06T06:12:02.694Z,965.99
2024-01-06T06:13:02.717Z,963.20
2024-01-06T06:14:03.344Z,965.29
2024-01-06T06:15:03.320Z,965.29
2024-01-06T06:16:03.332Z,967.39
2024-01-06T06:17:03.299Z,962.51
2024-01-06T06:18:02.123Z,959.74
2024-01-06T06:19:02.760Z,961.82
2024-01-06T06:20:02.436Z,961.82
2024-01-06T06:21:02.488Z,954.94
2024-01-06T06:22:02.667Z,960.43
2024-01-06T06:23:03.774Z,959.05
2024-01-06T06:24:03.742Z,958.36
2024-01-06T06:25:03.752Z,961.12
2024-01-06T06:26:03.195Z,970.20
2024-01-06T06:27:03.184Z,958.36
2024-01-06T06:28:02.490Z,957.68
2024-01-06T06:29:03.705Z,961.12
2024-01-06T06:30:02.503Z,961.82
2024-01-06T06:31:03.300Z,961.82
2024-01-06T06:32:03.102Z,962.51
2024-01-06T06:33:01.778Z,965.99
2024-01-06T06:34:05.265Z,961.12
2024-01-06T06:35:04.104Z,960.43
2024-01-06T06:36:03.044Z,959.74
2024-01-06T06:37:03.036Z,959.74
2024-01-06T06:38:02.420Z,963.90
2024-01-06T06:39:02.357Z,957.68
2024-01-06T06:40:02.982Z,957.68
2024-01-06T06:41:02.400Z,957.68
2024-01-06T06:42:02.979Z,961.82
2024-01-06T06:43:02.348Z,957.68
2024-01-06T06:44:01.554Z,959.74
2024-01-06T06:45:02.951Z,951.53
2024-01-06T06:46:02.381Z,953.57
2024-01-06T06:47:02.886Z,954.94
2024-01-06T06:48:02.977Z,954.25
2024-01-06T06:49:02.511Z,961.82
2024-01-06T06:50:02.886Z,956.30
2024-01-06T06:51:02.221Z,961.82
2024-01-06T06:52:02.842Z,956.99
2024-01-06T06:53:02.199Z,957.68
2024-01-06T06:54:02.825Z,954.94
2024-01-06T06:55:02.116Z,952.21
2024-01-06T06:56:02.100Z,953.57
2024-01-06T06:57:02.768Z,954.25
2024-01-06T06:58:02.776Z,964.59
2024-01-06T06:59:02.731Z,953.57
2024-01-06T07:00:02.720Z,956.99
2024-01-06T07:01:02.833Z,955.62
2024-01-06T07:02:02.754Z,952.21
2024-01-06T07:03:02.190Z,961.12
2024-01-06T07:04:02.697Z,957.68
2024-01-06T07:05:02.812Z,955.62
2024-01-06T07:06:01.290Z,955.62
2024-01-06T07:07:02.686Z,954.94
2024-01-06T07:08:01.918Z,950.18
2024-01-06T07:09:01.953Z,955.62
2024-01-06T07:10:02.625Z,946.14
2024-01-06T07:11:02.593Z,952.21
2024-01-06T07:12:02.558Z,954.25
2024-01-06T07:13:01.874Z,950.18
2024-01-06T07:14:01.688Z,948.15
2024-01-06T07:15:04.268Z,950.18
2024-01-06T07:16:11.840Z,950.85
2024-01-06T07:17:02.829Z,952.89
2024-01-06T07:18:02.649Z,948.15
2024-01-06T07:19:01.958Z,955.62
2024-01-06T07:20:02.516Z,954.94
2024-01-06T07:21:02.046Z,946.81
2024-01-06T07:22:03.727Z,959.74
2024-01-06T07:23:02.993Z,951.53
2024-01-06T07:24:02.931Z,951.53
2024-01-06T07:25:02.945Z,952.21
2024-01-06T07:26:01.724Z,943.46
2024-01-06T07:27:02.413Z,948.15
2024-01-06T07:28:02.966Z,944.80
2024-01-06T07:29:02.878Z,945.47
2024-01-06T07:30:01.058Z,945.47
2024-01-06T07:31:02.564Z,941.47
2024-01-06T07:32:02.348Z,942.80
2024-01-06T07:33:02.481Z,940.14
2024-01-06T07:34:01.185Z,934.22
2024-01-06T07:35:05.138Z,929.02
2024-01-06T07:36:03.798Z,924.52
2024-01-06T07:37:02.318Z,921.33
2024-01-06T07:38:01.581Z,924.52
2024-01-06T07:39:02.194Z,926.44
2024-01-06T07:40:02.278Z,921.33
2024-01-06T07:41:02.253Z,925.80
2024-01-06T07:42:01.479Z,927.73
2024-01-06T07:43:02.197Z,922.60
2024-01-06T07:44:02.142Z,928.37
2024-01-06T07:45:02.150Z,927.73
2024-01-06T07:46:00.781Z,931.61
2024-01-06T07:47:01.403Z,931.61
2024-01-06T07:48:02.366Z,928.37
2024-01-06T07:49:02.256Z,930.96
2024-01-06T07:50:01.390Z,934.87
2024-01-06T07:51:02.096Z,931.61
2024-01-06T07:52:01.401Z,927.73
2024-01-06T07:53:02.002Z,931.61
2024-01-06T07:54:01.976Z,932.91
2024-01-06T07:55:01.390Z,934.87
2024-01-06T07:56:01.936Z,937.50
2024-01-06T07:57:01.953Z,938.16
2024-01-06T07:58:02.008Z,928.37
2024-01-06T07:59:01.223Z,934.87
2024-01-06T08:00:04.277Z,933.57
2024-01-06T08:01:02.024Z,930.31
2024-01-06T08:02:01.869Z,936.18
2024-01-06T08:03:01.862Z,930.31
2024-01-06T08:04:02.013Z,930.31
2024-01-06T08:05:01.164Z,932.26
2024-01-06T08:06:01.200Z,929.67
2024-01-06T08:07:01.920Z,934.87
2024-01-06T08:08:01.164Z,932.26
2024-01-06T08:09:01.085Z,935.53
2024-01-06T08:10:01.886Z,930.96
2024-01-06T08:11:01.793Z,937.50
2024-01-06T08:12:01.714Z,936.84
2024-01-06T08:13:01.100Z,936.84
2024-01-06T08:14:00.403Z,934.87
2024-01-06T08:15:01.707Z,934.87
2024-01-06T08:16:01.717Z,929.02
2024-01-06T08:17:01.670Z,928.37
2024-01-06T08:18:01.056Z,932.26
2024-01-06T08:19:01.794Z,932.91
2024-01-06T08:20:00.696Z,930.31
2024-01-06T08:21:00.961Z,927.08
2024-01-06T08:22:00.320Z,929.02
2024-01-06T08:23:00.864Z,932.91
2024-01-06T08:24:00.892Z,927.08
2024-01-06T08:25:00.934Z,925.16
2024-01-06T08:26:01.558Z,926.44
2024-01-06T08:27:01.557Z,925.16
2024-01-06T08:28:00.272Z,925.80
2024-01-06T08:29:00.870Z,929.67
2024-01-06T08:30:01.604Z,925.16
2024-01-06T08:31:01.559Z,932.91
2024-01-06T08:32:00.349Z,926.44
2024-01-06T08:33:01.587Z,928.37
2024-01-06T08:34:00.747Z,926.44
2024-01-06T08:35:00.312Z,924.52
2024-01-06T08:36:00.045Z,925.80
2024-01-06T08:37:02.053Z,923.88
2024-01-06T08:38:01.947Z,926.44
2024-01-06T08:39:01.408Z,925.16
2024-01-06T08:40:02.027Z,921.33
2024-01-06T08:41:01.990Z,918.16
2024-01-06T08:42:02.552Z,915.64
2024-01-06T08:43:01.906Z,918.16
2024-01-06T08:43:59.903Z,916.27
2024-01-06T08:45:00.668Z,914.38
2024-01-06T08:46:01.366Z,915.64
2024-01-06T08:47:00.571Z,920.69
2024-01-06T08:48:00.714Z,914.38
2024-01-06T08:49:00.785Z,911.26
2024-01-06T08:50:01.478Z,911.89
2024-01-06T08:51:00.568Z,913.13
2024-01-06T08:52:01.316Z,911.26
2024-01-06T08:53:00.509Z,910.02
2024-01-06T08:54:01.175Z,900.81
2024-01-06T08:55:00.576Z,899.60
2024-01-06T08:56:00.439Z,900.81
2024-01-06T08:57:00.441Z,894.77
2024-01-06T08:58:00.528Z,894.77
2024-01-06T08:59:00.460Z,888.22
2024-01-06T08:59:59.674Z,894.77
2024-01-06T09:01:00.430Z,891.19
2024-01-06T09:02:01.110Z,885.28
2024-01-06T09:03:00.390Z,880.61
2024-01-06T09:04:01.152Z,879.45
2024-01-06T09:05:00.387Z,876.56
2024-01-06T09:06:01.004Z,878.87
2024-01-06T09:07:01.609Z,874.26
2024-01-06T09:07:59.583Z,877.14
2024-01-06T09:09:00.979Z,875.41
2024-01-06T09:10:01.079Z,870.27
2024-01-06T09:11:00.944Z,871.98
2024-01-06T09:12:00.238Z,866.88
2024-01-06T09:13:00.357Z,870.27
2024-01-06T09:14:00.185Z,870.27
2024-01-06T09:15:00.889Z,866.32
2024-01-06T09:16:01.947Z,870.27
2024-01-06T09:17:00.173Z,866.88
2024-01-06T09:18:00.952Z,865.76
2024-01-06T09:19:00.291Z,861.85
2024-01-06T09:20:00.211Z,862.40
2024-01-06T09:21:00.159Z,860.18
2024-01-06T09:22:02.119Z,859.63
2024-01-06T09:23:00.772Z,861.29
2024-01-06T09:23:59.825Z,861.85
2024-01-06T09:25:00.787Z,854.67
2024-01-06T09:26:00.718Z,857.42
2024-01-06T09:27:00.077Z,855.77
2024-01-06T09:28:00.061Z,850.86
2024-01-06T09:29:00.000Z,853.03
2024-01-06T09:29:59.346Z,850.86
2024-01-06T09:31:00.164Z,855.77
2024-01-06T09:31:59.921Z,853.03
2024-01-06T09:33:00.673Z,851.40
2024-01-06T09:34:00.697Z,854.67
2024-01-06T09:35:00.024Z,847.62
2024-01-06T09:36:01.129Z,838.04
2024-01-06T09:37:01.186Z,839.62
2024-01-06T09:37:59.900Z,836.47
2024-01-06T09:38:59.888Z,836.99
2024-01-06T09:39:59.270Z,839.09
2024-01-06T09:40:59.850Z,837.52
2024-01-06T09:41:59.865Z,833.33
2024-01-06T09:42:59.847Z,836.47
2024-01-06T09:44:00.497Z,837.52
2024-01-06T09:44:59.841Z,836.47
2024-01-06T09:46:00.544Z,838.04
2024-01-06T09:46:59.769Z,834.90
2024-01-06T09:48:00.535Z,832.29
2024-01-06T09:49:00.648Z,833.33
2024-01-06T09:50:00.439Z,833.85
2024-01-06T09:51:00.381Z,835.42
2024-01-06T09:52:00.542Z,832.29
2024-01-06T09:53:00.370Z,838.57
2024-01-06T09:54:01.028Z,838.57
2024-01-06T09:54:59.683Z,838.57
2024-01-06T09:55:59.635Z,840.15
2024-01-06T09:57:00.297Z,839.09
2024-01-06T09:57:59.919Z,836.47
2024-01-06T09:59:00.355Z,837.52
2024-01-06T10:00:00.354Z,841.21
2024-01-06T10:01:00.429Z,839.09
2024-01-06T10:02:00.292Z,839.62
2024-01-06T10:02:59.528Z,839.62
2024-01-06T10:03:59.645Z,838.57
2024-01-06T10:05:00.362Z,846.01
2024-01-06T10:05:59.546Z,843.87
2024-01-06T10:07:00.258Z,832.81
2024-01-06T10:07:59.476Z,836.47
2024-01-06T10:08:59.458Z,833.85
2024-01-06T10:10:00.307Z,830.74
2024-01-06T10:10:59.436Z,830.22
2024-01-06T10:12:00.164Z,834.90
2024-01-06T10:13:00.102Z,838.57
2024-01-06T10:14:00.069Z,835.94
2024-01-06T10:14:59.437Z,841.74
2024-01-06T10:15:59.062Z,840.15
2024-01-06T10:16:59.328Z,835.42
2024-01-06T10:17:59.418Z,834.90
2024-01-06T10:19:00.214Z,834.38
2024-01-06T10:20:00.051Z,833.33
2024-01-06T10:20:59.988Z,833.33
2024-01-06T10:21:59.974Z,833.33
2024-01-06T10:22:59.976Z,830.22
2024-01-06T10:23:58.579Z,831.78
2024-01-06T10:24:59.945Z,832.29
2024-01-06T10:26:02.157Z,831.78
2024-01-06T10:26:59.216Z,835.42
2024-01-06T10:27:59.267Z,835.42
2024-01-06T10:28:59.889Z,833.85
2024-01-06T10:29:59.884Z,834.90
2024-01-06T10:31:00.075Z,830.74
2024-01-06T10:31:59.941Z,833.85
2024-01-06T10:32:59.238Z,831.26
2024-01-06T10:34:00.013Z,823.06
2024-01-06T10:34:59.102Z,825.60
2024-01-06T10:35:59.787Z,824.07
2024-01-06T10:36:59.780Z,831.26
2024-01-06T10:37:59.759Z,829.71
2024-01-06T10:38:59.726Z,827.14
2024-01-06T10:39:59.815Z,830.74
2024-01-06T10:40:59.049Z,833.85
2024-01-06T10:41:58.966Z,836.47
2024-01-06T10:42:59.793Z,844.40
2024-01-06T10:43:59.651Z,838.57
2024-01-06T10:45:00.239Z,840.15
2024-01-06T10:46:00.336Z,842.27
2024-01-06T10:47:00.184Z,838.57
2024-01-06T10:48:00.292Z,838.57
2024-01-06T10:49:00.205Z,841.21
2024-01-06T10:50:01.422Z,850.32
2024-01-06T10:50:58.920Z,840.68
2024-01-06T10:52:00.318Z,851.40
2024-01-06T10:53:00.142Z,840.68
2024-01-06T10:53:58.202Z,842.27
2024-01-06T10:55:00.903Z,841.21
2024-01-06T10:56:00.047Z,845.47
2024-01-06T10:57:00.019Z,840.68
2024-01-06T10:57:58.836Z,843.87
2024-01-06T10:59:00.023Z,847.62
2024-01-06T11:00:00.001Z,848.16
2024-01-06T11:00:58.800Z,849.24
2024-01-06T11:01:59.411Z,857.42
2024-01-06T11:02:58.777Z,853.58
2024-01-06T11:03:59.580Z,856.87
2024-01-06T11:04:59.945Z,860.73
2024-01-06T11:05:58.175Z,859.63
2024-01-06T11:06:58.738Z,853.03
2024-01-06T11:07:59.340Z,855.22
2024-01-06T11:08:58.658Z,850.86
2024-01-06T11:09:58.091Z,859.07
2024-01-06T11:10:59.309Z,865.20
2024-01-06T11:11:59.277Z,861.29
2024-01-06T11:12:58.083Z,866.88
2024-01-06T11:13:59.252Z,864.64
2024-01-06T11:14:58.559Z,871.41
2024-01-06T11:15:58.676Z,868.58
2024-01-06T11:16:59.351Z,870.27
2024-01-06T11:17:59.540Z,870.27
2024-01-06T11:18:58.580Z,865.76
2024-01-06T11:19:59.213Z,874.84
2024-01-06T11:20:58.479Z,873.12
2024-01-06T11:21:59.270Z,875.41
2024-01-06T11:22:58.433Z,874.26
2024-01-06T11:23:59.102Z,879.45
2024-01-06T11:24:58.669Z,888.82
2024-01-06T11:25:58.405Z,889.41
2024-01-06T11:26:59.107Z,878.29
2024-01-06T11:27:59.110Z,895.97
2024-01-06T11:28:59.070Z,853.58
2024-01-06T11:29:59.021Z,866.32
2024-01-06T11:30:59.134Z,862.40
2024-01-06T11:31:58.485Z,861.29
2024-01-06T11:32:58.342Z,867.45
2024-01-06T11:33:58.352Z,884.69
2024-01-06T11:34:58.362Z,884.69
2024-01-06T11:35:58.958Z,862.96
2024-01-06T11:36:58.290Z,884.69
2024-01-06T11:37:58.937Z,883.52
2024-01-06T11:38:58.890Z,887.04
2024-01-06T11:39:58.265Z,891.78
2024-01-06T11:40:58.905Z,900.81
2024-01-06T11:41:58.847Z,891.78
2024-01-06T11:42:58.251Z,893.57
2024-01-06T11:43:58.827Z,905.70
2024-01-06T11:44:58.143Z,905.70
2024-01-06T11:45:58.851Z,896.58
2024-01-06T11:46:58.100Z,909.40
2024-01-06T11:47:58.835Z,915.01
2024-01-06T11:48:58.850Z,918.79
2024-01-06T11:49:58.135Z,925.80
2024-01-06T11:50:58.049Z,930.31
2024-01-06T11:51:58.019Z,945.47
2024-01-06T11:52:58.695Z,938.16
2024-01-06T11:53:59.248Z,947.48
2024-01-06T11:54:59.255Z,948.83
2024-01-06T11:55:59.233Z,945.47
2024-01-06T11:56:59.202Z,963.90
2024-01-06T11:57:58.010Z,963.20
2024-01-06T11:58:58.630Z,952.21
2024-01-06T11:59:58.699Z,952.21
2024-01-06T12:00:58.136Z,964.59
2024-01-06T12:01:58.040Z,969.50
2024-01-06T12:02:58.560Z,946.81
2024-01-06T12:03:57.899Z,950.18
2024-01-06T12:04:58.587Z,961.12
2024-01-06T12:05:58.572Z,957.68
2024-01-06T12:06:58.594Z,942.80
2024-01-06T12:07:57.859Z,964.59
2024-01-06T12:08:58.500Z,948.15
2024-01-06T12:09:58.504Z,950.85
2024-01-06T12:10:57.830Z,949.50
2024-01-06T12:11:57.827Z,966.69
2024-01-06T12:12:57.887Z,968.79
2024-01-06T12:13:58.439Z,966.69
2024-01-06T12:14:58.422Z,969.50
2024-01-06T12:15:58.462Z,973.03
2024-01-06T12:16:57.753Z,960.43
2024-01-06T12:17:57.791Z,958.36
2024-01-06T12:18:58.439Z,958.36
2024-01-06T12:19:57.695Z,980.18
2024-01-06T12:20:58.320Z,983.79
2024-01-06T12:21:57.655Z,978.02
2024-01-06T12:22:58.291Z,997.01
2024-01-06T12:23:57.590Z,1004.52
2024-01-06T12:24:57.618Z,997.76